This is the latest recevied weather packets stored in our database for station/object N4MRV-1. If no packets are shown the sender has not sent any weather packets the latest 10 day(s).
| Time | Temp. | Humidity | Pressure | Rain* | Wind** | Luminosity | Snow |
|---|---|---|---|---|---|---|---|
| 1777727736 | 11.11° C | 62% | 1014.5 hPa | 0 mm | - | 154 W/m² | - |
| 1777712416 | 9.44° C | 86% | 1013 hPa | 0 mm | - | 0 W/m² | - |
| 1777711516 | 9.44° C | 85% | 1012.9 hPa | 0 mm | - | 0 W/m² | - |
| 1777707916 | 10° C | 82% | 1012.7 hPa | 0 mm | - | 0 W/m² | - |
| 1777705216 | 11.11° C | 78% | 1012.6 hPa | 0 mm | - | 0 W/m² | - |
| 1777703416 | 11.67° C | 77% | 1012.6 hPa | 0 mm | - | 0 W/m² | - |
| 1777697117 | 12.78° C | 73% | 1012.7 hPa | 0 mm | - | 0 W/m² | - |
| 1777687216 | 14.44° C | 57% | 1012.3 hPa | 0 mm | - | 0 W/m² | - |
| 1777673717 | 19.44° C | 38% | 1011.2 hPa | 0 mm | - | 253 W/m² | - |
| 1777672817 | 19.44° C | 39% | 1011.3 hPa | 0 mm | - | 65 W/m² | - |
| 1777671917 | 19.44° C | 38% | 1011.2 hPa | 0 mm | - | 52 W/m² | - |
| 1777662017 | 18.89° C | 37% | 1013.3 hPa | 0 mm | - | 227 W/m² | - |
| 1777658417 | 17.22° C | 41% | 1014.2 hPa | 0 mm | - | 115 W/m² | - |
| 1777655737 | 16.67° C | 44% | 1014.9 hPa | 0 mm | - | 86 W/m² | - |
| 1777653016 | 16.67° C | 40% | 1015.4 hPa | 0 mm | - | 848 W/m² | - |
| 1777648516 | 15° C | 44% | 1016.5 hPa | 0 mm | - | 517 W/m² | - |
| 1777644016 | 12.78° C | 53% | 1016.6 hPa | 0 mm | - | 68 W/m² | - |
| 1777641316 | 11.11° C | 65% | 1016.3 hPa | 0 mm | - | 58 W/m² | - |
| 1777638616 | 6.67° C | 89% | 1016.7 hPa | 0 mm | - | 50 W/m² | - |
| 1777635016 | 3.89° C | 92% | 1016.5 hPa | 0 mm | - | 27 W/m² | - |
| 1777634116 | 3.89° C | 90% | 1016.3 hPa | 0 mm | - | 22 W/m² | - |
| 1777630516 | 3.89° C | 88% | 1016.1 hPa | 0 mm | - | 0 W/m² | - |
| 1777626016 | 5° C | 86% | 1015.9 hPa | 0 mm | - | 0 W/m² | - |
| 1777625116 | 5° C | 85% | 1015.8 hPa | 0 mm | - | 0 W/m² | - |
| 1777607116 | 11.67° C | 61% | 1014.1 hPa | 0 mm | - | 0 W/m² | - |
* Rain latest hour (hover to see other rain measurements)
** Current wind speed in m/s (hover to see current wind gust speed)